11R

Brenham Municipal Airport

Brenham, Texas, USA
METAR K11R 181335Z AUTO 00000KT 2SM BR SCT003 OVC010 13/13 A3004 RMK AO2 T01270127
Observed Flight Rules
Jan-18 @ 13:35 UTC (22 minutes ago) Instrument Flight Rules
Visibility Clouds Conditions
2 miles
  • Scattered at 300' AGL
  • Overcast at 1,000' AGL
  • Mist
Temperatures Readings
Current 13°C / 55°F
Dewpoint 13°C / 55°F
Humidity 100%
Altimeter 30.04" Hg
Pressure 1017.32 hPa
Elevation 94
METAR K11R 181335Z AUTO 00000KT 2SM BR SCT003 OVC010 13/13 A3004 RMK AO2 T01270127
Observed Flight Rules
Jan-18 @ 13:35 UTC
(22 minutes ago)
IFR
Clouds
  • Scattered at 300' AGL
  • Overcast at 1,000' AGL
Conditions
  • Mist
Temperature Dewpoint
13°C / 55°F 13°C / 55°F
Humidity Altimeter Pressure
100% 30.04" Hg 1017.32 hPa